Time;durP1;ratioP1;P1;durP2;ratioP2;P2;SDS_P1;SDS_P2;PMS_P1;PMS_P2;Temp;Humidity;BMP_temperature;BMP_pressure;BME280_temperature;BME280_humidity;BME280_pressure;Samples;Min_cycle;Max_cycle;Signal;HPM_P1;HPM_P2
2022/11/09 00:01:18;;;;;;;8.23;2.90;;;;;;;;;;5029696;28;20022;-65
2022/11/09 00:03:44;;;;;;;6.60;3.10;;;;;;;;;;5027251;28;20044;-67
2022/11/09 00:06:09;;;;;;;7.38;2.90;;;;;;;;;;5029250;28;20376;-66
2022/11/09 00:08:39;;;;;;;13.95;3.28;;;;;;;;;;5023799;28;20530;-65
2022/11/09 00:11:05;;;;;;;10.25;3.92;;;;;;;;;;5028761;28;20104;-65
2022/11/09 00:13:30;;;;;;;18.15;4.22;;;;;;;;;;5028350;28;20075;-66
2022/11/09 00:15:59;;;;;;;12.00;3.50;;;;;;;;;;5020310;28;20026;-64
2022/11/09 00:18:24;;;;;;;11.30;3.40;;;;;;;;;;5020396;28;20025;-67
2022/11/09 00:20:49;;;;;;;10.40;2.90;;;;;;;;;;5030301;28;20026;-65
2022/11/09 00:23:15;;;;;;;8.50;3.38;;;;;;;;;;5030348;28;20030;-65
2022/11/09 00:25:40;;;;;;;11.00;3.42;;;;;;;;;;5020695;28;20026;-65
2022/11/09 00:28:06;;;;;;;15.23;4.18;;;;;;;;;;5020835;28;20048;-65
2022/11/09 00:30:31;;;;;;;11.95;3.47;;;;;;;;;;5027639;28;20017;-64
2022/11/09 00:32:56;;;;;;;8.93;3.65;;;;;;;;;;5033150;28;20593;-65
2022/11/09 00:35:21;;;;;;;9.18;3.60;;;;;;;;;;5032650;28;20475;-66
2022/11/09 00:37:47;;;;;;;7.93;3.30;;;;;;;;;;5015964;28;20076;-67
2022/11/09 00:40:12;;;;;;;6.90;2.90;;;;;;;;;;5023909;28;20071;-68
2022/11/09 00:42:37;;;;;;;8.73;2.92;;;;;;;;;;5027780;28;20025;-65
2022/11/09 00:45:02;;;;;;;10.88;3.20;;;;;;;;;;5025095;28;20025;-67
2022/11/09 00:47:27;;;;;;;8.98;2.90;;;;;;;;;;5024887;28;20025;-66
2022/11/09 00:49:53;;;;;;;6.67;2.97;;;;;;;;;;5029712;28;20113;-66
2022/11/09 00:52:18;;;;;;;17.25;3.60;;;;;;;;;;5028192;28;20270;-68
2022/11/09 00:54:43;;;;;;;11.15;3.30;;;;;;;;;;5029721;28;20036;-66
2022/11/09 00:57:09;;;;;;;13.30;3.47;;;;;;;;;;5027801;28;20092;-67
2022/11/09 00:59:34;;;;;;;10.13;2.97;;;;;;;;;;5020293;28;20050;-67
2022/11/09 01:01:59;;;;;;;11.68;4.20;;;;;;;;;;5032128;28;20152;-67
2022/11/09 01:04:24;;;;;;;13.38;3.70;;;;;;;;;;5028234;28;20032;-67
2022/11/09 01:06:49;;;;;;;8.45;3.33;;;;;;;;;;5023499;28;20110;-65
2022/11/09 01:09:14;;;;;;;7.57;3.35;;;;;;;;;;5026404;28;20180;-65
2022/11/09 01:11:40;;;;;;;15.55;4.55;;;;;;;;;;5023585;28;20162;-67
2022/11/09 01:14:05;;;;;;;11.38;3.60;;;;;;;;;;5020076;28;20029;-66
2022/11/09 01:16:30;;;;;;;12.57;4.05;;;;;;;;;;5031632;28;20018;-66
2022/11/09 01:18:57;;;;;;;16.50;4.10;;;;;;;;;;5022536;28;20100;-66
2022/11/09 01:21:22;;;;;;;11.30;3.30;;;;;;;;;;5026993;28;20017;-65
2022/11/09 01:23:47;;;;;;;13.10;3.92;;;;;;;;;;5026845;28;20136;-67
2022/11/09 01:26:13;;;;;;;12.45;3.85;;;;;;;;;;5024705;28;20021;-65
2022/11/09 01:28:38;;;;;;;13.55;4.28;;;;;;;;;;5019183;28;20060;-67
2022/11/09 01:31:05;;;;;;;12.00;3.83;;;;;;;;;;5031241;28;20049;-64
2022/11/09 01:33:31;;;;;;;10.98;3.95;;;;;;;;;;5031405;28;20096;-67
2022/11/09 01:36:00;;;;;;;23.25;5.15;;;;;;;;;;5030762;28;20049;-65
2022/11/09 01:38:26;;;;;;;14.40;4.68;;;;;;;;;;5030475;28;20029;-65
2022/11/09 01:40:51;;;;;;;13.17;4.70;;;;;;;;;;5028497;28;20387;-65
2022/11/09 01:43:17;;;;;;;13.07;4.13;;;;;;;;;;5030704;28;20289;-65
2022/11/09 01:45:47;;;;;;;14.63;3.85;;;;;;;;;;5029728;28;20363;-64
2022/11/09 01:48:14;;;;;;;9.25;3.22;;;;;;;;;;5017062;28;20621;-64
2022/11/09 01:50:57;;;;;;;10.38;3.33;;;;;;;;;;5027354;28;20033;-67
2022/11/09 01:53:24;;;;;;;10.63;3.70;;;;;;;;;;5026822;28;20025;-67
2022/11/09 01:55:51;;;;;;;10.10;3.40;;;;;;;;;;5029001;28;20018;-66
2022/11/09 01:58:22;;;;;;;8.88;3.53;;;;;;;;;;5027574;28;20054;-65
2022/11/09 02:00:48;;;;;;;11.13;4.13;;;;;;;;;;5021157;28;20021;-65
2022/11/09 02:03:33;;;;;;;10.15;3.58;;;;;;;;;;5016443;28;20028;-66
2022/11/09 02:05:59;;;;;;;18.25;4.32;;;;;;;;;;5028938;28;20534;-65
2022/11/09 02:08:25;;;;;;;12.75;4.38;;;;;;;;;;5025795;28;20026;-67
2022/11/09 02:10:59;;;;;;;12.75;4.15;;;;;;;;;;5011910;28;20025;-64
2022/11/09 02:13:26;;;;;;;11.90;4.45;;;;;;;;;;5022922;28;20025;-65
2022/11/09 02:15:51;;;;;;;13.30;4.05;;;;;;;;;;5011184;28;20435;-64
2022/11/09 02:18:17;;;;;;;15.82;5.63;;;;;;;;;;5012285;28;20010;-66
2022/11/09 02:20:43;;;;;;;9.95;3.83;;;;;;;;;;5013320;28;20025;-65
2022/11/09 02:23:08;;;;;;;13.63;3.70;;;;;;;;;;5012935;28;20021;-66
2022/11/09 02:25:34;;;;;;;9.35;3.70;;;;;;;;;;5012023;28;20018;-65
2022/11/09 02:27:59;;;;;;;8.75;3.33;;;;;;;;;;5014906;28;20029;-64
2022/11/09 02:30:24;;;;;;;7.00;3.58;;;;;;;;;;5022598;28;20022;-66
2022/11/09 02:32:49;;;;;;;15.40;4.40;;;;;;;;;;5020276;28;20133;-65
2022/11/09 02:35:15;;;;;;;11.50;3.75;;;;;;;;;;5020747;28;20017;-67
2022/11/09 02:37:47;;;;;;;9.93;4.03;;;;;;;;;;5023257;28;20483;-65
2022/11/09 02:40:15;;;;;;;12.77;3.70;;;;;;;;;;5012160;28;20080;-66
2022/11/09 02:42:41;;;;;;;12.07;4.10;;;;;;;;;;5029749;28;20030;-66
2022/11/09 02:45:06;;;;;;;12.60;4.38;;;;;;;;;;5015935;28;20022;-66
2022/11/09 02:47:31;;;;;;;19.60;4.15;;;;;;;;;;5009904;28;20054;-64
2022/11/09 02:49:57;;;;;;;7.97;3.35;;;;;;;;;;5015990;28;20567;-67
2022/11/09 02:52:22;;;;;;;9.00;3.53;;;;;;;;;;5022934;28;20026;-66
2022/11/09 02:54:47;;;;;;;10.77;3.88;;;;;;;;;;5010690;28;20274;-66
2022/11/09 02:57:12;;;;;;;14.03;4.73;;;;;;;;;;5007474;28;20026;-65
2022/11/09 02:59:38;;;;;;;9.48;3.95;;;;;;;;;;5009746;28;20354;-66
2022/11/09 03:02:03;;;;;;;9.88;3.92;;;;;;;;;;5010525;28;20030;-65
2022/11/09 03:04:28;;;;;;;10.18;3.80;;;;;;;;;;5011480;28;20030;-65
2022/11/09 03:06:53;;;;;;;8.68;3.38;;;;;;;;;;5029852;28;20048;-68
2022/11/09 03:09:19;;;;;;;11.32;3.83;;;;;;;;;;5019149;28;20022;-64
2022/11/09 03:11:44;;;;;;;11.07;4.22;;;;;;;;;;5013500;28;20025;-67
2022/11/09 03:14:09;;;;;;;10.05;3.70;;;;;;;;;;5011737;28;20030;-65
2022/11/09 03:16:35;;;;;;;12.93;3.28;;;;;;;;;;5010926;28;20025;-68
2022/11/09 03:19:01;;;;;;;14.05;3.47;;;;;;;;;;5012855;28;20025;-65
2022/11/09 03:21:27;;;;;;;10.02;3.83;;;;;;;;;;5027645;28;20493;-66
2022/11/09 03:23:53;;;;;;;7.72;3.35;;;;;;;;;;5018257;28;20522;-66
2022/11/09 03:26:18;;;;;;;10.25;3.67;;;;;;;;;;5011127;28;20018;-64
2022/11/09 03:28:43;;;;;;;9.50;3.28;;;;;;;;;;5010048;28;20025;-67
2022/11/09 03:31:08;;;;;;;8.57;3.83;;;;;;;;;;5030336;28;20506;-65
2022/11/09 03:33:34;;;;;;;8.38;3.25;;;;;;;;;;5034222;28;20278;-66
2022/11/09 03:35:59;;;;;;;10.35;3.47;;;;;;;;;;5033524;28;20029;-64
2022/11/09 03:38:24;;;;;;;13.25;3.80;;;;;;;;;;5034253;28;20587;-66
2022/11/09 03:40:49;;;;;;;10.57;3.53;;;;;;;;;;5034296;28;20051;-64
2022/11/09 03:43:15;;;;;;;9.63;3.57;;;;;;;;;;5035624;28;20026;-67
2022/11/09 03:45:40;;;;;;;8.13;3.45;;;;;;;;;;5027181;28;20362;-65
2022/11/09 03:48:05;;;;;;;16.08;3.83;;;;;;;;;;5025917;28;20029;-66
2022/11/09 03:50:32;;;;;;;12.57;4.43;;;;;;;;;;5021705;28;20534;-67
2022/11/09 03:52:57;;;;;;;10.43;3.70;;;;;;;;;;5030238;28;20017;-66
2022/11/09 03:55:22;;;;;;;8.98;3.70;;;;;;;;;;5030971;28;20148;-67
2022/11/09 03:57:48;;;;;;;9.13;3.28;;;;;;;;;;5020835;28;20026;-65
2022/11/09 04:00:15;;;;;;;8.95;3.22;;;;;;;;;;5029641;28;20017;-66
2022/11/09 04:02:40;;;;;;;7.25;3.20;;;;;;;;;;5032818;28;20049;-65
2022/11/09 04:05:06;;;;;;;12.50;3.97;;;;;;;;;;5032410;28;20050;-65
2022/11/09 04:07:31;;;;;;;9.95;4.03;;;;;;;;;;5031869;28;20418;-65
2022/11/09 04:09:56;;;;;;;9.23;3.53;;;;;;;;;;5032531;28;20041;-65
2022/11/09 04:12:22;;;;;;;11.27;4.35;;;;;;;;;;5032450;28;20383;-66
2022/11/09 04:14:47;;;;;;;9.32;3.40;;;;;;;;;;5028880;28;20053;-65
2022/11/09 04:17:12;;;;;;;18.15;3.60;;;;;;;;;;5024221;28;20017;-67
2022/11/09 04:19:37;;;;;;;10.60;3.57;;;;;;;;;;5033037;28;20041;-64
2022/11/09 04:22:02;;;;;;;8.35;3.13;;;;;;;;;;5032953;28;20707;-66
2022/11/09 04:24:28;;;;;;;8.90;3.35;;;;;;;;;;5033052;28;20049;-65
2022/11/09 04:26:53;;;;;;;7.95;3.55;;;;;;;;;;5032466;28;20072;-66
2022/11/09 04:29:18;;;;;;;6.82;2.83;;;;;;;;;;5034247;28;20033;-67
2022/11/09 04:31:43;;;;;;;7.65;3.72;;;;;;;;;;5032076;28;20014;-66
2022/11/09 04:34:09;;;;;;;8.57;3.30;;;;;;;;;;5029833;28;20480;-66
2022/11/09 04:36:34;;;;;;;8.02;3.25;;;;;;;;;;5029844;28;20021;-64
2022/11/09 04:38:59;;;;;;;10.20;3.25;;;;;;;;;;5024987;28;20152;-65
2022/11/09 04:41:26;;;;;;;11.35;3.38;;;;;;;;;;5021377;28;20024;-66
2022/11/09 04:43:51;;;;;;;13.20;3.22;;;;;;;;;;5032233;28;20087;-66
2022/11/09 04:46:16;;;;;;;8.53;3.27;;;;;;;;;;5030443;28;20037;-65
2022/11/09 04:48:43;;;;;;;10.00;3.53;;;;;;;;;;5026061;28;20303;-66
2022/11/09 04:51:11;;;;;;;25.48;4.00;;;;;;;;;;5012877;28;20093;-66
2022/11/09 04:53:37;;;;;;;10.35;3.90;;;;;;;;;;5013259;28;20538;-65
2022/11/09 04:56:03;;;;;;;11.45;4.15;;;;;;;;;;5020968;28;20033;-68
2022/11/09 04:58:28;;;;;;;10.50;3.70;;;;;;;;;;5015756;28;20020;-67
2022/11/09 05:00:53;;;;;;;27.17;4.03;;;;;;;;;;5010764;28;20076;-67
2022/11/09 05:03:19;;;;;;;7.47;3.30;;;;;;;;;;5019615;28;20025;-66
2022/11/09 05:05:44;;;;;;;12.40;3.72;;;;;;;;;;5022291;28;20041;-65
2022/11/09 05:08:10;;;;;;;13.70;4.07;;;;;;;;;;5021290;28;20026;-65
2022/11/09 05:10:35;;;;;;;11.35;3.97;;;;;;;;;;5022672;28;20509;-65
2022/11/09 05:13:02;;;;;;;7.72;3.33;;;;;;;;;;5016852;28;20030;-66
2022/11/09 05:15:27;;;;;;;8.05;4.28;;;;;;;;;;5011698;28;20058;-67
2022/11/09 05:17:53;;;;;;;9.68;3.30;;;;;;;;;;5018922;28;20050;-66
2022/11/09 05:20:18;;;;;;;12.18;3.30;;;;;;;;;;5024990;28;20018;-67
2022/11/09 05:25:27;;;;;;;14.13;3.88;;;;;;;;;;5018965;28;20079;-66
2022/11/09 05:27:52;;;;;;;8.65;3.28;;;;;;;;;;5021473;28;20022;-69
2022/11/09 05:30:18;;;;;;;9.48;4.30;;;;;;;;;;5031522;28;20037;-66
2022/11/09 05:32:43;;;;;;;12.57;3.13;;;;;;;;;;5029642;28;20065;-67
2022/11/09 05:35:08;;;;;;;11.82;3.40;;;;;;;;;;5031855;28;20372;-65
2022/11/09 05:37:33;;;;;;;8.45;3.47;;;;;;;;;;5030523;28;20528;-67
2022/11/09 05:39:58;;;;;;;9.18;3.53;;;;;;;;;;5031042;28;20017;-67
2022/11/09 05:42:24;;;;;;;10.57;3.88;;;;;;;;;;5030695;28;20035;-66
2022/11/09 05:44:49;;;;;;;14.13;4.32;;;;;;;;;;5031522;28;20044;-67
2022/11/09 05:47:14;;;;;;;9.02;3.53;;;;;;;;;;5031535;28;20075;-68
2022/11/09 05:49:40;;;;;;;10.35;3.33;;;;;;;;;;5020621;28;20037;-67
2022/11/09 05:52:05;;;;;;;7.90;3.42;;;;;;;;;;5027063;28;20155;-66
2022/11/09 05:54:30;;;;;;;8.87;3.30;;;;;;;;;;5030964;28;20020;-68
2022/11/09 05:56:55;;;;;;;13.32;3.45;;;;;;;;;;5029607;28;20259;-65
2022/11/09 05:59:21;;;;;;;8.93;3.20;;;;;;;;;;5019723;28;20105;-67
2022/11/09 06:01:46;;;;;;;8.55;3.55;;;;;;;;;;5026324;28;20026;-67
2022/11/09 06:04:11;;;;;;;16.02;4.03;;;;;;;;;;5028379;28;20122;-67
2022/11/09 06:06:36;;;;;;;11.90;4.30;;;;;;;;;;5021161;28;20635;-67
2022/11/09 06:09:01;;;;;;;12.00;4.40;;;;;;;;;;5021238;28;20041;-67
2022/11/09 06:11:27;;;;;;;8.50;3.53;;;;;;;;;;5031075;28;20030;-67
2022/11/09 06:13:53;;;;;;;9.30;4.95;;;;;;;;;;5030797;28;20113;-64
2022/11/09 06:16:18;;;;;;;11.35;4.60;;;;;;;;;;5028367;28;20167;-65
2022/11/09 06:18:43;;;;;;;14.98;4.07;;;;;;;;;;5029059;28;20017;-67
2022/11/09 06:21:18;;;;;;;11.18;4.00;;;;;;;;;;5016351;28;20054;-64
2022/11/09 06:23:43;;;;;;;17.60;4.75;;;;;;;;;;5025486;28;20022;-65
2022/11/09 06:26:09;;;;;;;17.58;4.43;;;;;;;;;;5016787;28;20044;-68
2022/11/09 06:28:35;;;;;;;17.33;5.28;;;;;;;;;;5018851;28;20021;-65
2022/11/09 06:31:01;;;;;;;16.80;4.20;;;;;;;;;;5025383;28;20151;-66
2022/11/09 06:33:28;;;;;;;9.45;4.15;;;;;;;;;;5024898;28;20021;-67
2022/11/09 06:35:55;;;;;;;10.68;4.47;;;;;;;;;;5029774;28;20022;-65
2022/11/09 06:38:20;;;;;;;8.88;4.13;;;;;;;;;;5028196;28;20017;-68
2022/11/09 06:40:45;;;;;;;20.48;4.05;;;;;;;;;;5017387;28;20368;-64
2022/11/09 06:43:11;;;;;;;13.20;4.07;;;;;;;;;;5030072;28;20053;-65
2022/11/09 06:45:36;;;;;;;12.80;5.07;;;;;;;;;;5027838;28;20026;-67
2022/11/09 06:48:02;;;;;;;17.77;4.70;;;;;;;;;;5029543;28;20032;-68
2022/11/09 06:50:29;;;;;;;13.48;5.07;;;;;;;;;;5025983;28;20021;-67
2022/11/09 06:52:56;;;;;;;12.35;4.50;;;;;;;;;;5018701;28;20064;-67
2022/11/09 06:55:21;;;;;;;12.80;4.93;;;;;;;;;;5029565;28;20087;-68
2022/11/09 06:57:46;;;;;;;15.90;4.82;;;;;;;;;;5028356;28;20029;-67
2022/11/09 07:00:12;;;;;;;9.30;4.45;;;;;;;;;;5028859;28;20022;-69
2022/11/09 07:02:37;;;;;;;12.00;5.43;;;;;;;;;;5025086;28;20022;-68
2022/11/09 07:05:02;;;;;;;9.68;4.22;;;;;;;;;;5027054;28;20115;-65
2022/11/09 07:07:27;;;;;;;10.35;4.40;;;;;;;;;;5022581;28;20156;-67
2022/11/09 07:09:53;;;;;;;9.20;4.25;;;;;;;;;;5034421;28;20029;-65
2022/11/09 07:12:18;;;;;;;14.18;3.95;;;;;;;;;;5030113;28;20049;-65
2022/11/09 07:14:43;;;;;;;13.18;4.45;;;;;;;;;;5022139;28;20095;-67
2022/11/09 07:17:08;;;;;;;14.27;5.93;;;;;;;;;;5032310;28;20100;-67
2022/11/09 07:19:34;;;;;;;14.38;7.72;;;;;;;;;;5030085;28;20736;-67
2022/11/09 07:21:59;;;;;;;13.52;6.00;;;;;;;;;;5020432;28;20413;-67
2022/11/09 07:24:24;;;;;;;10.18;4.82;;;;;;;;;;5022244;28;20086;-66
2022/11/09 07:26:50;;;;;;;10.38;4.55;;;;;;;;;;5022810;28;20647;-67
2022/11/09 07:29:15;;;;;;;15.50;4.40;;;;;;;;;;5025810;28;20579;-69
2022/11/09 07:31:40;;;;;;;14.05;5.00;;;;;;;;;;5024809;28;20036;-67
2022/11/09 07:34:05;;;;;;;18.25;5.05;;;;;;;;;;5021818;28;20411;-66
2022/11/09 07:36:37;;;;;;;18.00;5.47;;;;;;;;;;5023960;28;20707;-69
2022/11/09 07:39:02;;;;;;;14.05;4.63;;;;;;;;;;5022572;28;20503;-66
2022/11/09 07:41:28;;;;;;;15.98;5.03;;;;;;;;;;5022392;28;20079;-66
2022/11/09 07:43:53;;;;;;;9.63;4.50;;;;;;;;;;5035298;28;20037;-66
2022/11/09 07:46:18;;;;;;;12.77;4.27;;;;;;;;;;5033063;28;20121;-64
2022/11/09 07:48:44;;;;;;;11.55;3.83;;;;;;;;;;5030917;28;20258;-63
2022/11/09 07:51:09;;;;;;;10.70;4.30;;;;;;;;;;5030112;28;20025;-66
2022/11/09 07:53:34;;;;;;;12.75;4.55;;;;;;;;;;5032562;28;20024;-65
2022/11/09 07:56:00;;;;;;;9.10;4.10;;;;;;;;;;5031650;28;20811;-66
2022/11/09 07:58:25;;;;;;;11.00;3.55;;;;;;;;;;5031215;28;20021;-67
2022/11/09 08:00:51;;;;;;;10.90;3.72;;;;;;;;;;5025837;28;20749;-64
2022/11/09 08:03:20;;;;;;;10.15;4.13;;;;;;;;;;5026399;28;20021;-67
2022/11/09 08:05:45;;;;;;;11.73;3.95;;;;;;;;;;5031600;28;20009;-69
2022/11/09 08:08:11;;;;;;;8.98;3.92;;;;;;;;;;5032269;28;20514;-64
2022/11/09 08:10:37;;;;;;;10.68;3.72;;;;;;;;;;5032685;28;20495;-66
2022/11/09 08:13:03;;;;;;;8.80;3.40;;;;;;;;;;5032329;28;20026;-65
2022/11/09 08:15:29;;;;;;;9.88;4.75;;;;;;;;;;5018585;28;20018;-68
2022/11/09 08:17:57;;;;;;;10.15;4.03;;;;;;;;;;5030602;28;20117;-66
2022/11/09 08:20:23;;;;;;;8.80;4.15;;;;;;;;;;5031681;28;20022;-65
2022/11/09 08:22:48;;;;;;;13.68;4.60;;;;;;;;;;5032853;28;20030;-68
2022/11/09 08:25:13;;;;;;;9.82;4.13;;;;;;;;;;5030055;28;20621;-65
2022/11/09 08:27:39;;;;;;;10.05;4.13;;;;;;;;;;5019904;28;20057;-66
2022/11/09 08:30:18;;;;;;;19.48;4.43;;;;;;;;;;5018360;28;20092;-66
2022/11/09 08:32:43;;;;;;;11.35;4.22;;;;;;;;;;5032015;28;20105;-65
2022/11/09 08:35:09;;;;;;;19.50;4.45;;;;;;;;;;5030274;28;20045;-68
2022/11/09 08:37:35;;;;;;;10.88;4.50;;;;;;;;;;5031163;28;20495;-64
2022/11/09 08:40:00;;;;;;;11.45;4.22;;;;;;;;;;5030370;28;20497;-66
2022/11/09 08:42:25;;;;;;;10.48;4.15;;;;;;;;;;5024350;28;20025;-69
2022/11/09 08:44:50;;;;;;;14.10;4.20;;;;;;;;;;5031726;28;20083;-66
2022/11/09 08:47:16;;;;;;;13.38;4.20;;;;;;;;;;5031715;28;20104;-66
2022/11/09 08:49:42;;;;;;;9.88;4.57;;;;;;;;;;5020429;28;20029;-66
2022/11/09 08:52:07;;;;;;;11.35;4.72;;;;;;;;;;5020891;28;20089;-67
2022/11/09 08:54:34;;;;;;;9.98;3.75;;;;;;;;;;5018105;28;20575;-66
2022/11/09 08:56:59;;;;;;;17.95;4.78;;;;;;;;;;5031373;28;20572;-67
2022/11/09 08:59:24;;;;;;;16.27;4.23;;;;;;;;;;5031492;28;20677;-66
2022/11/09 09:01:50;;;;;;;11.10;4.95;;;;;;;;;;5022644;28;20244;-66
2022/11/09 09:04:15;;;;;;;12.90;4.18;;;;;;;;;;5022605;28;20009;-67
2022/11/09 09:06:40;;;;;;;11.45;4.60;;;;;;;;;;5030324;28;20018;-67
2022/11/09 09:09:06;;;;;;;13.82;5.05;;;;;;;;;;5032259;28;20029;-66
2022/11/09 09:11:31;;;;;;;15.93;5.00;;;;;;;;;;5029689;28;20136;-64
2022/11/09 09:13:56;;;;;;;23.58;5.65;;;;;;;;;;5028282;28;20078;-66
2022/11/09 09:16:21;;;;;;;11.65;5.20;;;;;;;;;;5019916;28;20025;-67
2022/11/09 09:18:47;;;;;;;15.63;5.93;;;;;;;;;;5029214;28;20024;-66
2022/11/09 09:21:13;;;;;;;19.85;5.70;;;;;;;;;;5030463;28;20484;-66
2022/11/09 09:23:38;;;;;;;22.27;5.75;;;;;;;;;;5027957;28;20025;-67
2022/11/09 09:26:03;;;;;;;16.63;5.15;;;;;;;;;;5020757;28;20212;-66
2022/11/09 09:28:28;;;;;;;14.57;5.60;;;;;;;;;;5017409;28;20582;-66
2022/11/09 09:30:56;;;;;;;14.82;5.97;;;;;;;;;;5020743;28;20032;-67
2022/11/09 09:33:21;;;;;;;16.00;5.10;;;;;;;;;;5024341;28;20025;-68
2022/11/09 09:35:46;;;;;;;12.10;4.73;;;;;;;;;;5012951;28;20717;-66
2022/11/09 09:38:11;;;;;;;15.73;5.97;;;;;;;;;;5026359;28;20283;-65
2022/11/09 09:40:42;;;;;;;16.58;6.20;;;;;;;;;;5031309;28;20017;-66
2022/11/09 09:43:13;;;;;;;20.17;5.65;;;;;;;;;;5031785;28;20407;-67
2022/11/09 09:45:43;;;;;;;14.75;4.68;;;;;;;;;;5031106;28;20087;-67
2022/11/09 09:48:27;;;;;;;13.68;5.82;;;;;;;;;;5031533;28;20021;-66
2022/11/09 09:50:53;;;;;;;11.77;5.45;;;;;;;;;;5028752;28;20026;-67
2022/11/09 09:53:25;;;;;;;13.18;5.38;;;;;;;;;;5030669;28;20517;-68
2022/11/09 09:55:55;;;;;;;12.95;4.72;;;;;;;;;;5030417;28;20014;-66
2022/11/09 09:58:25;;;;;;;14.50;5.18;;;;;;;;;;5029822;28;20014;-67
2022/11/09 10:00:53;;;;;;;9.93;4.85;;;;;;;;;;5014885;28;20029;-67
2022/11/09 10:03:19;;;;;;;16.67;5.15;;;;;;;;;;5015098;28;20017;-67
2022/11/09 10:06:03;;;;;;;8.23;3.70;;;;;;;;;;5029235;28;20483;-68
2022/11/09 10:08:57;;;;;;;8.50;3.33;;;;;;;;;;5029591;28;20021;-65
2022/11/09 10:11:23;;;;;;;11.48;4.13;;;;;;;;;;5005334;28;20041;-69
2022/11/09 10:13:59;;;;;;;10.45;3.45;;;;;;;;;;5030122;28;20025;-67
2022/11/09 10:16:40;;;;;;;11.48;4.53;;;;;;;;;;5028934;28;20239;-67
2022/11/09 10:19:20;;;;;;;16.80;3.47;;;;;;;;;;5030832;28;20026;-66
2022/11/09 10:21:55;;;;;;;16.40;3.63;;;;;;;;;;5030146;28;20044;-66
2022/11/09 10:24:25;;;;;;;12.35;3.72;;;;;;;;;;5029895;28;20049;-67
2022/11/09 10:26:53;;;;;;;7.20;3.08;;;;;;;;;;5028878;28;20072;-65
2022/11/09 10:29:25;;;;;;;8.50;3.38;;;;;;;;;;5021548;28;20032;-69
2022/11/09 10:31:52;;;;;;;10.45;3.47;;;;;;;;;;5025604;28;20439;-65
2022/11/09 10:34:28;;;;;;;7.63;3.35;;;;;;;;;;5029500;28;20010;-67
2022/11/09 10:37:00;;;;;;;10.90;4.55;;;;;;;;;;5024142;28;20445;-65
2022/11/09 10:39:26;;;;;;;8.45;3.35;;;;;;;;;;5021607;28;20112;-65
2022/11/09 10:41:51;;;;;;;12.77;3.38;;;;;;;;;;5028400;28;20037;-65
2022/11/09 10:44:17;;;;;;;11.05;3.30;;;;;;;;;;5019775;28;20024;-68
2022/11/09 10:47:01;;;;;;;8.30;3.10;;;;;;;;;;5028007;28;20131;-65
2022/11/09 10:49:27;;;;;;;12.38;3.42;;;;;;;;;;5029138;28;20021;-64
2022/11/09 10:51:52;;;;;;;8.18;3.00;;;;;;;;;;5028445;28;20109;-65
2022/11/09 10:54:26;;;;;;;13.88;3.20;;;;;;;;;;5020724;28;20018;-65
2022/11/09 10:56:59;;;;;;;10.73;3.22;;;;;;;;;;5019865;28;20018;-68
2022/11/09 10:59:33;;;;;;;8.27;3.15;;;;;;;;;;5025335;28;20348;-67
2022/11/09 11:01:58;;;;;;;6.57;2.70;;;;;;;;;;5028853;28;20104;-69
2022/11/09 11:04:24;;;;;;;8.60;3.25;;;;;;;;;;5027980;28;20112;-68
2022/11/09 11:06:49;;;;;;;8.15;3.25;;;;;;;;;;5028471;28;20013;-65
2022/11/09 11:09:15;;;;;;;8.97;2.60;;;;;;;;;;5029724;28;20026;-65
2022/11/09 11:11:41;;;;;;;9.68;3.65;;;;;;;;;;5029038;28;20298;-67
2022/11/09 11:14:25;;;;;;;8.18;2.47;;;;;;;;;;5028479;28;20443;-68
2022/11/09 11:16:51;;;;;;;6.25;3.17;;;;;;;;;;5028230;28;20041;-67
2022/11/09 11:19:35;;;;;;;6.07;2.95;;;;;;;;;;5025706;28;20060;-67
2022/11/09 11:22:21;;;;;;;6.80;2.88;;;;;;;;;;5027186;28;20017;-68
2022/11/09 11:24:57;;;;;;;7.05;2.80;;;;;;;;;;5029586;28;20096;-67
2022/11/09 11:27:26;;;;;;;8.30;2.60;;;;;;;;;;5028220;28;20387;-66
2022/11/09 11:29:54;;;;;;;8.05;2.40;;;;;;;;;;5028940;28;20025;-67
2022/11/09 11:32:21;;;;;;;6.03;2.53;;;;;;;;;;5022058;28;20364;-66
2022/11/09 11:34:47;;;;;;;10.63;3.20;;;;;;;;;;5010907;28;20045;-66
2022/11/09 11:37:22;;;;;;;7.10;3.08;;;;;;;;;;5028968;28;20013;-67
2022/11/09 11:39:53;;;;;;;7.13;3.00;;;;;;;;;;5027203;28;20049;-65
2022/11/09 11:42:37;;;;;;;6.70;2.67;;;;;;;;;;5017791;28;20038;-67
2022/11/09 11:45:31;;;;;;;7.22;2.80;;;;;;;;;;5028208;28;20163;-66
2022/11/09 11:47:57;;;;;;;10.10;2.38;;;;;;;;;;5028653;28;20021;-64
2022/11/09 11:50:25;;;;;;;8.10;3.58;;;;;;;;;;5026418;28;20642;-67
2022/11/09 11:52:50;;;;;;;6.03;2.53;;;;;;;;;;5030859;28;20025;-68
2022/11/09 11:55:17;;;;;;;10.23;3.00;;;;;;;;;;5032618;28;20032;-65
2022/11/09 11:57:56;;;;;;;8.25;2.50;;;;;;;;;;5031129;28;20680;-68
2022/11/09 12:00:21;;;;;;;9.05;2.53;;;;;;;;;;5021582;28;20041;-67
2022/11/09 12:02:49;;;;;;;8.02;2.67;;;;;;;;;;5029351;28;20098;-65
2022/11/09 12:05:33;;;;;;;5.72;2.33;;;;;;;;;;5031657;28;20087;-65
2022/11/09 12:08:17;;;;;;;6.13;2.38;;;;;;;;;;5015791;28;20018;-67
2022/11/09 12:10:45;;;;;;;5.82;2.22;;;;;;;;;;5025963;28;20093;-67
2022/11/09 12:13:20;;;;;;;8.17;2.43;;;;;;;;;;5012713;28;20022;-66
2022/11/09 12:15:51;;;;;;;6.25;1.63;;;;;;;;;;5029816;28;20286;-66
2022/11/09 12:18:39;;;;;;;5.22;1.80;;;;;;;;;;5032440;28;20021;-67
2022/11/09 12:21:14;;;;;;;5.47;1.98;;;;;;;;;;4984013;28;20572;-68
2022/11/09 12:23:58;;;;;;;5.22;1.98;;;;;;;;;;5033106;28;20033;-66
2022/11/09 12:26:53;;;;;;;5.50;2.00;;;;;;;;;;5031745;28;20503;-69
2022/11/09 12:29:20;;;;;;;5.95;2.47;;;;;;;;;;5008347;28;20088;-67
2022/11/09 12:31:53;;;;;;;5.85;1.90;;;;;;;;;;5028923;28;20044;-69
2022/11/09 12:34:24;;;;;;;14.43;2.95;;;;;;;;;;5021721;28;20025;-67
2022/11/09 12:37:06;;;;;;;8.98;3.28;;;;;;;;;;5031268;28;20239;-66
2022/11/09 12:39:40;;;;;;;6.28;2.25;;;;;;;;;;5032978;28;20088;-68
2022/11/09 12:42:09;;;;;;;7.68;3.63;;;;;;;;;;5029937;28;20037;-67
2022/11/09 12:44:43;;;;;;;5.47;2.92;;;;;;;;;;5031475;28;20024;-67
2022/11/09 12:47:14;;;;;;;4.45;1.63;;;;;;;;;;5031070;28;20583;-68
2022/11/09 12:49:41;;;;;;;4.95;2.05;;;;;;;;;;5030821;28;20025;-67
2022/11/09 12:52:07;;;;;;;4.78;1.85;;;;;;;;;;5020446;28;20419;-67
2022/11/09 12:54:34;;;;;;;5.10;2.20;;;;;;;;;;5027940;28;20079;-66
2022/11/09 12:57:07;;;;;;;7.25;2.05;;;;;;;;;;5020338;28;20522;-67
2022/11/09 12:59:34;;;;;;;5.25;1.80;;;;;;;;;;5028333;28;20025;-66
2022/11/09 13:02:00;;;;;;;5.15;2.15;;;;;;;;;;5031395;28;20013;-67
2022/11/09 13:04:25;;;;;;;5.22;1.52;;;;;;;;;;5025207;28;20560;-67
2022/11/09 13:07:02;;;;;;;5.13;1.65;;;;;;;;;;5030303;28;20032;-67
2022/11/09 13:09:28;;;;;;;4.97;1.50;;;;;;;;;;5031566;28;20140;-66
2022/11/09 13:11:55;;;;;;;6.75;1.98;;;;;;;;;;5030711;28;20100;-69
2022/11/09 13:14:20;;;;;;;4.03;1.55;;;;;;;;;;5030038;28;20021;-66
2022/11/09 13:16:45;;;;;;;5.00;1.53;;;;;;;;;;5029536;28;20489;-65
2022/11/09 13:19:11;;;;;;;2.95;1.45;;;;;;;;;;5027766;28;20293;-66
2022/11/09 13:21:37;;;;;;;7.93;1.73;;;;;;;;;;5030721;28;20018;-66
2022/11/09 13:24:21;;;;;;;4.32;1.30;;;;;;;;;;5031441;28;20021;-67
2022/11/09 13:26:46;;;;;;;4.30;1.90;;;;;;;;;;5017130;28;20744;-65
2022/11/09 13:29:21;;;;;;;5.13;1.80;;;;;;;;;;5031204;28;20059;-66
2022/11/09 13:32:06;;;;;;;4.10;1.70;;;;;;;;;;5029266;28;20514;-66
2022/11/09 13:34:50;;;;;;;5.07;1.80;;;;;;;;;;5019086;28;20041;-67
2022/11/09 13:37:34;;;;;;;3.53;1.60;;;;;;;;;;5017520;28;20028;-69
2022/11/09 13:39:59;;;;;;;4.00;1.67;;;;;;;;;;5029282;28;20484;-68
2022/11/09 13:42:35;;;;;;;4.18;1.50;;;;;;;;;;5029834;28;20041;-66
2022/11/09 13:45:23;;;;;;;4.05;1.52;;;;;;;;;;5029329;28;20018;-69
2022/11/09 13:47:49;;;;;;;2.78;1.65;;;;;;;;;;5030490;28;20017;-65
2022/11/09 13:50:19;;;;;;;10.02;2.58;;;;;;;;;;5029077;28;20083;-69
2022/11/09 13:52:47;;;;;;;5.65;1.75;;;;;;;;;;5029913;28;20026;-68
2022/11/09 13:55:22;;;;;;;3.95;1.60;;;;;;;;;;5022053;28;20108;-65
2022/11/09 13:57:47;;;;;;;4.78;1.60;;;;;;;;;;5027722;28;20077;-68
2022/11/09 14:00:18;;;;;;;3.42;1.70;;;;;;;;;;5019023;28;20022;-66
2022/11/09 14:02:51;;;;;;;5.95;1.75;;;;;;;;;;5022277;28;20025;-65
2022/11/09 14:05:42;;;;;;;3.38;1.83;;;;;;;;;;5021558;28;20469;-65
2022/11/09 14:08:14;;;;;;;7.70;1.60;;;;;;;;;;5021197;28;20077;-65
2022/11/09 14:10:42;;;;;;;3.10;1.52;;;;;;;;;;5027251;28;20014;-67
2022/11/09 14:13:26;;;;;;;18.42;2.15;;;;;;;;;;5018715;28;20367;-64
2022/11/09 14:16:10;;;;;;;5.43;1.77;;;;;;;;;;5027999;28;20021;-66
2022/11/09 14:18:41;;;;;;;10.98;1.58;;;;;;;;;;5028013;28;20026;-68
2022/11/09 14:21:29;;;;;;;3.72;1.50;;;;;;;;;;5029802;28;20013;-65
2022/11/09 14:24:00;;;;;;;5.10;1.30;;;;;;;;;;5029799;28;20021;-64
2022/11/09 14:26:25;;;;;;;6.43;2.60;;;;;;;;;;5028827;28;20057;-64
2022/11/09 14:28:50;;;;;;;3.88;1.77;;;;;;;;;;5029461;28;20049;-65
2022/11/09 14:31:29;;;;;;;7.63;1.90;;;;;;;;;;5029399;28;20087;-67
2022/11/09 14:34:02;;;;;;;3.75;1.50;;;;;;;;;;5027539;28;20108;-67
2022/11/09 14:36:29;;;;;;;5.38;2.00;;;;;;;;;;5028488;28;20021;-65
2022/11/09 14:38:56;;;;;;;5.38;1.70;;;;;;;;;;5022511;28;20017;-67
2022/11/09 14:41:25;;;;;;;5.57;1.40;;;;;;;;;;5022254;28;20024;-65
2022/11/09 14:43:52;;;;;;;5.90;1.60;;;;;;;;;;5018333;28;20064;-66